sensor_id;sensor_type;location;lat;lon;timestamp;temperature;humidity
4960;DHT22;2495;48.200;11.532;2022-12-07T04:02:56;6.40;81.80
4960;DHT22;2495;48.200;11.532;2022-12-07T04:08:16;6.30;81.90
4960;DHT22;2495;48.200;11.532;2022-12-07T04:13:18;6.30;81.60
4960;DHT22;2495;48.200;11.532;2022-12-07T04:18:19;6.30;81.50
4960;DHT22;2495;48.200;11.532;2022-12-07T04:23:21;6.20;81.00
4960;DHT22;2495;48.200;11.532;2022-12-07T04:28:22;6.10;81.30
4960;DHT22;2495;48.200;11.532;2022-12-07T04:33:23;6.50;83.20
4960;DHT22;2495;48.200;11.532;2022-12-07T04:38:25;6.50;81.40
4960;DHT22;2495;48.200;11.532;2022-12-07T04:43:26;6.40;81.40
4960;DHT22;2495;48.200;11.532;2022-12-07T04:48:28;6.30;81.30
4960;DHT22;2495;48.200;11.532;2022-12-07T04:53:30;6.20;82.00
4960;DHT22;2495;48.200;11.532;2022-12-07T04:58:31;6.40;83.30
4960;DHT22;2495;48.200;11.532;2022-12-07T05:03:33;6.30;82.70
4960;DHT22;2495;48.200;11.532;2022-12-07T05:08:35;6.30;81.80
4960;DHT22;2495;48.200;11.532;2022-12-07T05:13:37;6.40;83.30
4960;DHT22;2495;48.200;11.532;2022-12-07T05:18:38;6.30;82.60
4960;DHT22;2495;48.200;11.532;2022-12-07T05:23:40;6.30;82.50
4960;DHT22;2495;48.200;11.532;2022-12-07T05:28:41;6.10;83.50
4960;DHT22;2495;48.200;11.532;2022-12-07T05:33:42;6.00;82.80
4960;DHT22;2495;48.200;11.532;2022-12-07T05:38:44;5.90;82.80
4960;DHT22;2495;48.200;11.532;2022-12-07T05:43:45;5.80;83.10
4960;DHT22;2495;48.200;11.532;2022-12-07T05:48:47;5.80;83.00
4960;DHT22;2495;48.200;11.532;2022-12-07T05:53:51;5.70;83.10
4960;DHT22;2495;48.200;11.532;2022-12-07T05:58:53;5.60;83.00
4960;DHT22;2495;48.200;11.532;2022-12-07T06:04:16;6.00;84.70
4960;DHT22;2495;48.200;11.532;2022-12-07T06:09:21;6.40;83.80
4960;DHT22;2495;48.200;11.532;2022-12-07T06:24:58;7.00;83.60
4960;DHT22;2495;48.200;11.532;2022-12-07T06:29:59;6.70;82.60
4960;DHT22;2495;48.200;11.532;2022-12-07T06:35:01;6.40;82.00
4960;DHT22;2495;48.200;11.532;2022-12-07T06:40:05;6.20;82.70
4960;DHT22;2495;48.200;11.532;2022-12-07T06:45:07;6.00;83.10
4960;DHT22;2495;48.200;11.532;2022-12-07T06:50:10;5.80;83.30
4960;DHT22;2495;48.200;11.532;2022-12-07T06:55:17;5.70;82.90
4960;DHT22;2495;48.200;11.532;2022-12-07T07:00:26;5.60;83.80
4960;DHT22;2495;48.200;11.532;2022-12-07T08:27:16;6.40;83.20
4960;DHT22;2495;48.200;11.532;2022-12-07T08:32:27;6.30;82.30
4960;DHT22;2495;48.200;11.532;2022-12-07T08:37:24;6.30;82.10
4960;DHT22;2495;48.200;11.532;2022-12-07T08:42:28;6.20;81.40
4960;DHT22;2495;48.200;11.532;2022-12-07T08:47:37;6.20;81.10
4960;DHT22;2495;48.200;11.532;2022-12-07T08:52:38;6.60;82.40
4960;DHT22;2495;48.200;11.532;2022-12-07T08:57:40;6.80;81.30
4960;DHT22;2495;48.200;11.532;2022-12-07T17:35:10;6.70;70.40
4960;DHT22;2495;48.200;11.532;2022-12-07T17:40:50;6.60;70.40
4960;DHT22;2495;48.200;11.532;2022-12-07T17:53:43;6.90;71.30
4960;DHT22;2495;48.200;11.532;2022-12-07T18:06:32;6.60;71.60
4960;DHT22;2495;48.200;11.532;2022-12-07T18:17:30;6.50;71.90
4960;DHT22;2495;48.200;11.532;2022-12-07T18:54:55;6.20;72.00
